Time;durP1;ratioP1;P1;durP2;ratioP2;P2;SDS_P1;SDS_P2;PMS_P1;PMS_P2;Temp;Humidity;BMP_temperature;BMP_pressure;BME280_temperature;BME280_humidity;BME280_pressure;Samples;Min_cycle;Max_cycle;Signal;HPM_P1;HPM_P2
2021/03/28 00:00:15;;;;;;;2.67;1.10;;;;;;;;;;5133170;27;20107;-54
2021/03/28 00:02:50;;;;;;;2.07;1.27;;;;;;;;;;5134414;27;20071;-56
2021/03/28 00:05:16;;;;;;;1.93;1.10;;;;;;;;;;5128684;27;20038;-54
2021/03/28 00:07:46;;;;;;;4.63;1.27;;;;;;;;;;5122960;27;20019;-55
2021/03/28 00:10:24;;;;;;;4.83;1.50;;;;;;;;;;5130605;27;20217;-55
2021/03/28 00:12:58;;;;;;;3.57;1.40;;;;;;;;;;5134086;27;20116;-53
2021/03/28 00:15:24;;;;;;;2.53;1.33;;;;;;;;;;5132105;27;20041;-54
2021/03/28 00:17:51;;;;;;;3.17;1.70;;;;;;;;;;5133877;27;20026;-55
2021/03/28 00:20:17;;;;;;;2.53;1.57;;;;;;;;;;5127089;27;20535;-56
2021/03/28 00:23:01;;;;;;;2.03;1.60;;;;;;;;;;5117918;27;20049;-56
2021/03/28 00:25:32;;;;;;;2.20;1.40;;;;;;;;;;5131874;27;20026;-55
2021/03/28 00:27:58;;;;;;;3.30;1.97;;;;;;;;;;5133578;27;20422;-54
2021/03/28 00:30:25;;;;;;;3.83;1.60;;;;;;;;;;5130884;27;20023;-56
2021/03/28 00:33:17;;;;;;;2.73;2.03;;;;;;;;;;5133214;27;20015;-56
2021/03/28 00:35:51;;;;;;;2.23;1.77;;;;;;;;;;5121846;27;20073;-52
2021/03/28 00:38:18;;;;;;;3.00;2.40;;;;;;;;;;5113325;28;20027;-53
2021/03/28 00:40:44;;;;;;;2.03;1.47;;;;;;;;;;5117946;28;20389;-54
2021/03/28 00:43:12;;;;;;;1.90;1.43;;;;;;;;;;5123797;27;20035;-53
2021/03/28 00:45:40;;;;;;;5.47;2.13;;;;;;;;;;5121024;28;20385;-51
2021/03/28 00:48:24;;;;;;;3.47;1.87;;;;;;;;;;5133741;27;20040;-57
2021/03/28 00:50:49;;;;;;;3.00;1.60;;;;;;;;;;5131574;28;20242;-56
2021/03/28 00:53:29;;;;;;;5.57;2.20;;;;;;;;;;5131997;28;20429;-54
2021/03/28 00:55:56;;;;;;;3.90;1.90;;;;;;;;;;5122845;28;20034;-55
2021/03/28 00:58:25;;;;;;;3.30;1.80;;;;;;;;;;5133634;27;20050;-54
2021/03/28 01:00:54;;;;;;;2.77;1.83;;;;;;;;;;5132563;27;20031;-53
2021/03/28 01:03:36;;;;;;;4.47;1.93;;;;;;;;;;5126723;27;20038;-55
2021/03/28 01:06:21;;;;;;;3.57;2.07;;;;;;;;;;5137539;27;20027;-53
2021/03/28 01:08:47;;;;;;;;;;;;;;;;;;5124546;27;20052;-54
2021/03/28 01:11:30;;;;;;;4.22;1.98;;;;;;;;;;5133784;27;19927;-54
2021/03/28 01:14:04;;;;;;;5.63;2.40;;;;;;;;;;5116984;28;20106;-54
2021/03/28 01:16:48;;;;;;;4.15;2.22;;;;;;;;;;5129995;27;20392;-49
2021/03/28 01:19:32;;;;;;;5.90;2.50;;;;;;;;;;5131320;27;20027;-55
2021/03/28 01:22:16;;;;;;;4.43;2.60;;;;;;;;;;5118716;27;20142;-55
2021/03/28 01:24:44;;;;;;;5.27;3.00;;;;;;;;;;5115556;27;20484;-53
2021/03/28 01:27:21;;;;;;;3.63;2.20;;;;;;;;;;5136367;27;20106;-54
2021/03/28 01:29:46;;;;;;;3.13;2.50;;;;;;;;;;5129851;27;20062;-54
2021/03/28 01:32:26;;;;;;;3.13;1.87;;;;;;;;;;5128583;27;20039;-56
2021/03/28 01:35:04;;;;;;;4.67;2.10;;;;;;;;;;5117094;27;20372;-55
2021/03/28 01:37:30;;;;;;;4.70;2.10;;;;;;;;;;5117618;27;20047;-55
2021/03/28 01:40:19;;;;;;;5.43;2.53;;;;;;;;;;5125833;27;20552;-56
2021/03/28 01:42:51;;;;;;;3.13;2.23;;;;;;;;;;5123240;27;20060;-55
2021/03/28 01:45:19;;;;;;;4.17;2.50;;;;;;;;;;5130391;27;20024;-56
2021/03/28 01:47:53;;;;;;;3.60;2.27;;;;;;;;;;5131308;27;20494;-56
2021/03/28 01:50:30;;;;;;;4.83;2.80;;;;;;;;;;5122936;27;20044;-55
2021/03/28 01:53:16;;;;;;;7.23;2.83;;;;;;;;;;5134506;27;20134;-52
2021/03/28 01:55:51;;;;;;;6.57;3.20;;;;;;;;;;5135502;27;20049;-53
2021/03/28 01:58:36;;;;;;;5.22;2.50;;;;;;;;;;5136805;27;20027;-51
2021/03/28 02:01:07;;;;;;;4.43;2.88;;;;;;;;;;5116949;27;20072;-55
2021/03/28 02:03:41;;;;;;;4.67;2.73;;;;;;;;;;5116605;27;20102;-53
2021/03/28 02:06:26;;;;;;;5.10;2.97;;;;;;;;;;5121270;27;20448;-54
2021/03/28 02:08:52;;;;;;;5.80;3.25;;;;;;;;;;5108432;27;20024;-55
2021/03/28 02:11:35;;;;;;;5.60;3.53;;;;;;;;;;5115329;28;20022;-52
2021/03/28 02:14:06;;;;;;;5.20;3.07;;;;;;;;;;5120989;27;20048;-55
2021/03/28 02:16:49;;;;;;;6.17;3.73;;;;;;;;;;5135930;27;20358;-55
2021/03/28 02:19:17;;;;;;;5.83;2.73;;;;;;;;;;5121415;27;20011;-54
2021/03/28 02:22:01;;;;;;;3.83;3.00;;;;;;;;;;5135721;27;20477;-54
2021/03/28 02:24:38;;;;;;;6.40;3.03;;;;;;;;;;5136007;27;20019;-56
2021/03/28 02:27:26;;;;;;;7.83;3.80;;;;;;;;;;5115702;27;20024;-54
2021/03/28 02:30:04;;;;;;;4.63;3.00;;;;;;;;;;5123544;27;20026;-55
2021/03/28 02:32:43;;;;;;;6.40;3.80;;;;;;;;;;5128551;27;20049;-55
2021/03/28 02:35:15;;;;;;;7.97;3.80;;;;;;;;;;5129432;27;20381;-55
2021/03/28 02:37:40;;;;;;;6.87;3.90;;;;;;;;;;5134865;27;20065;-51
2021/03/28 02:40:15;;;;;;;6.53;3.43;;;;;;;;;;5124699;27;20108;-51
2021/03/28 02:43:03;;;;;;;8.23;4.23;;;;;;;;;;5123014;27;20019;-51
2021/03/28 02:45:33;;;;;;;7.67;3.67;;;;;;;;;;5035660;28;20104;-54
2021/03/28 02:48:17;;;;;;;5.13;3.93;;;;;;;;;;5032405;28;20018;-53
2021/03/28 02:50:45;;;;;;;5.37;3.30;;;;;;;;;;5046214;28;20053;-54
2021/03/28 02:53:13;;;;;;;6.27;4.07;;;;;;;;;;5047946;28;20056;-55
2021/03/28 02:55:41;;;;;;;8.33;3.70;;;;;;;;;;5017180;28;20450;-55
2021/03/28 02:58:14;;;;;;;7.63;4.37;;;;;;;;;;5042552;28;20037;-53
2021/03/28 03:00:58;;;;;;;8.27;4.63;;;;;;;;;;5051000;28;20032;-55
2021/03/28 03:03:32;;;;;;;5.47;4.00;;;;;;;;;;5038514;28;20135;-54
2021/03/28 03:06:30;;;;;;;9.97;4.30;;;;;;;;;;5051110;28;20040;-54
2021/03/28 03:08:55;;;;;;;8.33;4.27;;;;;;;;;;5012122;28;20489;-54
2021/03/28 03:11:52;;;;;;;8.47;4.27;;;;;;;;;;5009554;28;20034;-54
2021/03/28 03:14:23;;;;;;;7.03;4.17;;;;;;;;;;4989832;28;20038;-53
2021/03/28 03:16:52;;;;;;;6.73;4.23;;;;;;;;;;4992247;28;20469;-55
2021/03/28 03:19:29;;;;;;;9.80;4.40;;;;;;;;;;4992148;28;20532;-54
2021/03/28 03:22:21;;;;;;;7.20;4.40;;;;;;;;;;5014901;28;20391;-53
2021/03/28 03:25:05;;;;;;;7.60;4.57;;;;;;;;;;5069705;28;20033;-55
2021/03/28 03:27:36;;;;;;;7.90;3.77;;;;;;;;;;5071665;28;20025;-55
2021/03/28 03:30:13;;;;;;;5.17;3.93;;;;;;;;;;5070419;28;20059;-57
2021/03/28 03:32:39;;;;;;;9.63;4.63;;;;;;;;;;5070404;28;20028;-53
2021/03/28 03:35:08;;;;;;;6.20;3.80;;;;;;;;;;5070621;28;20043;-51
2021/03/28 03:37:51;;;;;;;5.10;3.80;;;;;;;;;;5070499;28;20523;-52
2021/03/28 03:40:19;;;;;;;9.07;4.37;;;;;;;;;;5070285;28;20399;-54
2021/03/28 03:43:03;;;;;;;8.47;3.97;;;;;;;;;;5056942;28;20020;-54
2021/03/28 03:45:37;;;;;;;5.43;3.97;;;;;;;;;;5118034;27;20028;-52
2021/03/28 03:48:06;;;;;;;7.30;4.23;;;;;;;;;;5118918;27;20022;-57
2021/03/28 03:50:49;;;;;;;7.63;4.13;;;;;;;;;;5132965;27;20077;-55
2021/03/28 03:53:21;;;;;;;6.47;4.57;;;;;;;;;;5115181;27;20484;-52
2021/03/28 03:55:54;;;;;;;6.53;4.43;;;;;;;;;;5114014;27;20024;-55
2021/03/28 03:58:25;;;;;;;8.20;4.53;;;;;;;;;;5128048;27;20051;-52
2021/03/28 04:01:29;;;;;;;6.43;3.87;;;;;;;;;;5130351;27;20458;-49
2021/03/28 04:04:05;;;;;;;6.83;3.97;;;;;;;;;;5062401;28;20131;-56
2021/03/28 04:06:48;;;;;;;7.63;3.87;;;;;;;;;;5069834;28;20032;-54
2021/03/28 04:09:16;;;;;;;7.70;4.17;;;;;;;;;;5056915;28;20029;-55
2021/03/28 04:11:54;;;;;;;6.73;3.67;;;;;;;;;;5059995;28;20016;-56
2021/03/28 04:14:36;;;;;;;5.70;3.60;;;;;;;;;;5055127;28;20029;-52
2021/03/28 04:17:19;;;;;;;7.57;4.37;;;;;;;;;;5070839;28;20553;-54
2021/03/28 04:20:02;;;;;;;6.33;4.00;;;;;;;;;;5069310;28;20118;-56
2021/03/28 04:22:47;;;;;;;7.27;4.00;;;;;;;;;;5062440;28;20484;-53
2021/03/28 04:25:23;;;;;;;4.87;3.07;;;;;;;;;;5066692;28;20032;-54
2021/03/28 04:28:07;;;;;;;5.93;2.97;;;;;;;;;;5051912;28;20368;-53
2021/03/28 04:30:41;;;;;;;6.80;3.33;;;;;;;;;;5070010;28;20382;-54
2021/03/28 04:33:25;;;;;;;4.67;3.30;;;;;;;;;;5068999;28;20062;-55
2021/03/28 04:36:02;;;;;;;5.43;2.87;;;;;;;;;;5122991;27;20038;-55
2021/03/28 04:38:30;;;;;;;6.10;3.50;;;;;;;;;;5120622;28;20030;-56
2021/03/28 04:40:55;;;;;;;6.33;3.20;;;;;;;;;;5131812;27;20018;-54
2021/03/28 04:43:21;;;;;;;8.00;3.70;;;;;;;;;;5123618;28;20015;-55
2021/03/28 04:45:55;;;;;;;7.60;3.83;;;;;;;;;;5123487;27;20073;-53
2021/03/28 04:48:20;;;;;;;7.23;3.80;;;;;;;;;;5113713;28;20062;-55
2021/03/28 04:51:04;;;;;;;8.37;3.80;;;;;;;;;;5123850;28;20050;-54
2021/03/28 04:53:47;;;;;;;5.00;3.37;;;;;;;;;;5118937;28;20041;-53
2021/03/28 04:56:31;;;;;;;4.83;3.20;;;;;;;;;;5113029;28;20020;-55
2021/03/28 04:59:14;;;;;;;7.00;3.80;;;;;;;;;;5113033;28;20027;-56
2021/03/28 05:01:54;;;;;;;7.07;3.90;;;;;;;;;;5126757;28;20058;-52
2021/03/28 05:04:34;;;;;;;6.03;3.63;;;;;;;;;;5132175;27;20051;-55
2021/03/28 05:07:11;;;;;;;7.87;3.53;;;;;;;;;;5125923;28;20036;-53
2021/03/28 05:09:55;;;;;;;5.53;3.27;;;;;;;;;;5125590;28;20489;-52
2021/03/28 05:12:39;;;;;;;6.63;3.10;;;;;;;;;;5126661;28;20031;-56
2021/03/28 05:15:19;;;;;;;5.87;3.73;;;;;;;;;;5127349;28;20049;-56
2021/03/28 05:17:47;;;;;;;6.63;3.80;;;;;;;;;;5126220;28;20046;-55
2021/03/28 05:20:21;;;;;;;5.40;2.90;;;;;;;;;;5125828;28;20027;-56
2021/03/28 05:23:10;;;;;;;6.80;2.80;;;;;;;;;;5112727;28;20016;-56
2021/03/28 05:25:54;;;;;;;5.50;2.93;;;;;;;;;;5120347;28;20023;-55
2021/03/28 05:28:38;;;;;;;6.53;2.93;;;;;;;;;;5114737;28;20028;-55
2021/03/28 05:31:18;;;;;;;8.30;3.13;;;;;;;;;;5119141;28;20029;-56
2021/03/28 05:33:53;;;;;;;7.40;3.07;;;;;;;;;;5132881;28;20111;-55
2021/03/28 05:36:47;;;;;;;5.13;2.70;;;;;;;;;;5119341;27;20027;-55
2021/03/28 05:39:34;;;;;;;4.40;2.73;;;;;;;;;;5039479;28;20060;-56
2021/03/28 05:42:06;;;;;;;5.10;2.60;;;;;;;;;;5036200;28;20022;-55
2021/03/28 05:45:00;;;;;;;4.33;2.60;;;;;;;;;;5030189;28;20025;-55
2021/03/28 05:47:37;;;;;;;7.23;3.07;;;;;;;;;;5041386;28;20071;-53
2021/03/28 05:50:03;;;;;;;6.57;3.07;;;;;;;;;;5049064;28;20534;-54
2021/03/28 05:52:40;;;;;;;4.67;2.27;;;;;;;;;;5052580;28;20031;-51
2021/03/28 05:55:23;;;;;;;7.80;3.07;;;;;;;;;;5050666;28;21214;-56
2021/03/28 05:57:51;;;;;;;5.47;2.47;;;;;;;;;;5043848;28;20032;-51
2021/03/28 06:00:36;;;;;;;6.67;2.63;;;;;;;;;;5052236;28;20415;-53
2021/03/28 06:03:01;;;;;;;5.57;2.80;;;;;;;;;;5052933;28;20036;-56
2021/03/28 06:05:45;;;;;;;7.37;2.80;;;;;;;;;;5046776;28;20021;-56
2021/03/28 06:08:29;;;;;;;5.93;2.60;;;;;;;;;;5039088;28;20057;-53
2021/03/28 06:11:13;;;;;;;7.70;2.87;;;;;;;;;;5048986;28;20054;-54
2021/03/28 06:13:56;;;;;;;5.43;2.80;;;;;;;;;;5035292;28;20032;-57
2021/03/28 06:16:25;;;;;;;4.40;2.47;;;;;;;;;;5101796;27;20473;-56
2021/03/28 06:19:05;;;;;;;7.00;2.90;;;;;;;;;;5117563;27;20024;-52
2021/03/28 06:21:48;;;;;;;6.10;3.07;;;;;;;;;;5115643;28;20019;-56
2021/03/28 06:24:16;;;;;;;6.43;2.73;;;;;;;;;;5120444;27;20032;-56
2021/03/28 06:26:44;;;;;;;4.83;2.80;;;;;;;;;;5134054;27;20076;-54
2021/03/28 06:29:28;;;;;;;6.20;3.00;;;;;;;;;;5134007;27;20015;-56
2021/03/28 06:32:18;;;;;;;7.70;2.60;;;;;;;;;;5133908;27;20042;-55
2021/03/28 06:34:49;;;;;;;6.90;3.20;;;;;;;;;;5132904;27;20019;-56
2021/03/28 06:37:15;;;;;;;3.30;2.07;;;;;;;;;;5134973;27;20015;-54
2021/03/28 06:39:49;;;;;;;7.17;3.07;;;;;;;;;;5134817;27;20031;-54
2021/03/28 06:42:33;;;;;;;5.60;3.00;;;;;;;;;;5119873;27;20015;-55
2021/03/28 06:45:00;;;;;;;6.97;3.30;;;;;;;;;;5124730;27;20462;-52
2021/03/28 06:47:46;;;;;;;4.93;2.87;;;;;;;;;;5135250;27;20508;-54
2021/03/28 06:50:11;;;;;;;;;;;;;;;;;;5135826;27;20401;-54
2021/03/28 06:52:55;;;;;;;3.28;1.98;;;;;;;;;;5134732;27;20254;-54
2021/03/28 06:55:33;;;;;;;5.10;2.30;;;;;;;;;;5134187;27;20051;-54
2021/03/28 06:58:16;;;;;;;4.97;2.70;;;;;;;;;;5135547;27;20054;-51
2021/03/28 07:00:51;;;;;;;7.23;2.30;;;;;;;;;;5134340;27;20012;-56
2021/03/28 07:03:23;;;;;;;7.50;2.53;;;;;;;;;;5133927;27;20027;-52
2021/03/28 07:05:48;;;;;;;5.27;2.30;;;;;;;;;;5114632;27;20054;-52
2021/03/28 07:08:17;;;;;;;5.97;2.50;;;;;;;;;;5114685;27;20055;-54
2021/03/28 07:10:43;;;;;;;6.07;2.30;;;;;;;;;;5114728;27;20015;-52
2021/03/28 07:13:13;;;;;;;6.93;2.57;;;;;;;;;;5134163;27;20156;-54
2021/03/28 07:15:47;;;;;;;8.27;2.77;;;;;;;;;;5126695;27;20023;-54
2021/03/28 07:18:27;;;;;;;4.70;2.20;;;;;;;;;;5126927;27;20498;-55
2021/03/28 07:21:04;;;;;;;4.20;2.20;;;;;;;;;;5132235;27;20029;-56
2021/03/28 07:23:32;;;;;;;6.10;2.50;;;;;;;;;;5133918;27;20500;-56
2021/03/28 07:26:16;;;;;;;4.68;2.17;;;;;;;;;;5132613;27;20019;-56
2021/03/28 07:28:57;;;;;;;7.05;2.38;;;;;;;;;;5133555;27;20023;-55
2021/03/28 07:31:41;;;;;;;5.10;2.42;;;;;;;;;;5125934;27;20049;-56
2021/03/28 07:34:25;;;;;;;5.85;2.25;;;;;;;;;;5134311;27;20114;-55
2021/03/28 07:37:09;;;;;;;4.53;1.95;;;;;;;;;;5123680;27;20055;-54
2021/03/28 07:39:43;;;;;;;6.30;2.03;;;;;;;;;;5131906;27;20054;-52
2021/03/28 07:42:27;;;;;;;6.13;2.45;;;;;;;;;;5122380;27;20353;-56
2021/03/28 07:45:11;;;;;;;3.35;0.63;;;;;;;;;;5125035;27;20026;-56
2021/03/28 07:47:50;;;;;;;6.40;1.80;;;;;;;;;;5117677;27;20027;-53
2021/03/28 07:50:33;;;;;;;4.88;2.08;;;;;;;;;;5134057;27;20043;-55
2021/03/28 07:53:14;;;;;;;4.93;1.77;;;;;;;;;;5125794;27;20054;-56
2021/03/28 07:55:55;;;;;;;4.70;1.75;;;;;;;;;;5124585;27;20031;-53
2021/03/28 07:58:26;;;;;;;4.25;1.60;;;;;;;;;;5117591;27;20026;-57
2021/03/28 08:01:03;;;;;;;5.03;1.33;;;;;;;;;;5123815;27;20055;-57
2021/03/28 08:03:56;;;;;;;3.92;1.70;;;;;;;;;;5131146;27;20386;-55
2021/03/28 08:06:36;;;;;;;1.27;0.60;;;;;;;;;;5117356;27;20102;-55
2021/03/28 08:09:34;;;;;;;5.47;2.13;;;;;;;;;;5133248;27;20034;-57
2021/03/28 08:12:02;;;;;;;3.75;0.88;;;;;;;;;;5037110;28;20071;-52
2021/03/28 08:14:36;;;;;;;4.82;1.50;;;;;;;;;;5042880;28;20171;-56
2021/03/28 08:17:07;;;;;;;3.08;1.00;;;;;;;;;;5039171;28;20116;-55
2021/03/28 08:19:52;;;;;;;8.27;1.27;;;;;;;;;;5035658;28;20037;-56
2021/03/28 08:22:24;;;;;;;2.70;1.23;;;;;;;;;;5050001;28;20036;-57
2021/03/28 08:24:59;;;;;;;5.72;1.05;;;;;;;;;;5032269;28;20072;-57
2021/03/28 08:27:37;;;;;;;4.22;1.15;;;;;;;;;;5045169;28;20040;-53
2021/03/28 08:30:13;;;;;;;5.18;1.52;;;;;;;;;;5049106;28;20033;-57
2021/03/28 08:32:56;;;;;;;5.25;1.52;;;;;;;;;;5020029;28;20160;-56
2021/03/28 08:35:28;;;;;;;6.53;2.15;;;;;;;;;;5033806;28;20118;-53
2021/03/28 08:38:12;;;;;;;5.05;1.38;;;;;;;;;;5045825;28;20082;-55
2021/03/28 08:40:40;;;;;;;5.07;1.50;;;;;;;;;;5038847;28;20025;-56
2021/03/28 08:43:18;;;;;;;6.05;1.73;;;;;;;;;;5043708;28;20044;-54
2021/03/28 08:46:01;;;;;;;6.57;2.20;;;;;;;;;;5030646;28;20060;-56
2021/03/28 08:48:30;;;;;;;5.97;1.77;;;;;;;;;;5109964;28;20121;-52
2021/03/28 08:50:58;;;;;;;6.07;1.75;;;;;;;;;;5119864;27;20063;-56
2021/03/28 08:53:42;;;;;;;3.65;0.95;;;;;;;;;;5132264;28;20071;-57
2021/03/28 08:56:40;;;;;;;4.80;0.98;;;;;;;;;;5131175;27;20031;-56
2021/03/28 08:59:15;;;;;;;4.88;2.17;;;;;;;;;;5073575;28;20189;-57
2021/03/28 09:01:49;;;;;;;5.53;1.30;;;;;;;;;;5062370;28;20437;-55
2021/03/28 09:04:23;;;;;;;8.13;0.95;;;;;;;;;;5090062;28;20031;-57
2021/03/28 09:07:06;;;;;;;9.25;1.20;;;;;;;;;;5076145;28;20135;-57
2021/03/28 09:09:40;;;;;;;7.35;1.40;;;;;;;;;;5088775;28;20032;-57
2021/03/28 09:12:08;;;;;;;5.13;1.48;;;;;;;;;;5088629;28;20031;-57
2021/03/28 09:14:42;;;;;;;7.07;0.82;;;;;;;;;;5089818;28;20031;-57
2021/03/28 09:17:17;;;;;;;3.13;1.50;;;;;;;;;;5075489;28;20103;-54
2021/03/28 09:19:48;;;;;;;4.22;0.82;;;;;;;;;;5057186;28;20399;-57
2021/03/28 09:22:19;;;;;;;6.93;1.75;;;;;;;;;;5082007;28;20025;-54
2021/03/28 09:24:44;;;;;;;9.15;2.38;;;;;;;;;;5074171;28;20095;-56
2021/03/28 09:27:09;;;;;;;3.83;0.60;;;;;;;;;;5076079;28;20103;-55
2021/03/28 09:29:34;;;;;;;8.52;1.35;;;;;;;;;;5091749;28;20027;-54
2021/03/28 09:32:12;;;;;;;4.45;0.98;;;;;;;;;;5076823;28;20020;-56
2021/03/28 09:34:37;;;;;;;6.95;1.50;;;;;;;;;;5083266;28;20023;-57
2021/03/28 09:37:14;;;;;;;3.85;1.17;;;;;;;;;;5135717;27;20015;-57
2021/03/28 09:40:09;;;;;;;4.93;1.40;;;;;;;;;;5129751;27;20362;-55
2021/03/28 09:42:34;;;;;;;5.85;1.67;;;;;;;;;;5071810;28;20114;-54
2021/03/28 09:45:18;;;;;;;5.43;0.95;;;;;;;;;;5065642;28;20033;-57
2021/03/28 09:47:52;;;;;;;3.72;0.52;;;;;;;;;;5059157;28;20064;-55
2021/03/28 09:50:30;;;;;;;5.70;1.08;;;;;;;;;;5061253;28;20044;-57
2021/03/28 09:53:13;;;;;;;5.40;0.68;;;;;;;;;;5064267;28;20039;-53
2021/03/28 09:55:43;;;;;;;6.72;0.85;;;;;;;;;;5064864;28;20029;-55
2021/03/28 09:58:13;;;;;;;4.97;1.10;;;;;;;;;;5052928;28;20568;-54
2021/03/28 10:01:01;;;;;;;5.32;1.70;;;;;;;;;;5060475;28;20449;-56
2021/03/28 10:03:36;;;;;;;7.18;0.60;;;;;;;;;;5067002;28;20074;-56
2021/03/28 10:06:18;;;;;;;7.10;1.03;;;;;;;;;;5061816;28;20024;-55
2021/03/28 10:08:45;;;;;;;4.43;0.70;;;;;;;;;;5073042;28;20656;-56
2021/03/28 10:11:19;;;;;;;2.58;0.63;;;;;;;;;;5041847;28;20033;-56
2021/03/28 10:14:03;;;;;;;7.85;1.20;;;;;;;;;;5058643;28;21271;-57
2021/03/28 10:16:31;;;;;;;6.20;1.23;;;;;;;;;;5061396;28;20406;-57
2021/03/28 10:19:05;;;;;;;5.00;1.48;;;;;;;;;;5095244;27;20050;-55
2021/03/28 10:21:30;;;;;;;5.25;0.98;;;;;;;;;;5116158;27;20107;-55
2021/03/28 10:23:58;;;;;;;6.60;1.10;;;;;;;;;;5132138;27;20098;-56
2021/03/28 10:26:39;;;;;;;6.30;1.13;;;;;;;;;;5134373;27;20051;-58
2021/03/28 10:29:28;;;;;;;2.15;0.55;;;;;;;;;;5119005;27;20047;-55
2021/03/28 10:31:57;;;;;;;4.70;0.80;;;;;;;;;;5116573;27;20015;-51
2021/03/28 10:34:35;;;;;;;4.43;0.80;;;;;;;;;;5134469;27;20446;-53
2021/03/28 10:37:15;;;;;;;5.85;1.67;;;;;;;;;;5133630;27;20042;-54
2021/03/28 10:39:41;;;;;;;5.35;1.55;;;;;;;;;;5131514;27;20023;-57
2021/03/28 10:42:06;;;;;;;4.38;1.17;;;;;;;;;;5116669;27;20378;-58
2021/03/28 10:44:50;;;;;;;4.20;0.82;;;;;;;;;;5129338;27;20027;-56
2021/03/28 10:47:15;;;;;;;3.67;1.10;;;;;;;;;;5116393;27;20020;-56
2021/03/28 10:49:56;;;;;;;6.30;1.42;;;;;;;;;;5125657;27;20051;-56
2021/03/28 10:52:21;;;;;;;3.50;1.55;;;;;;;;;;5133219;27;20110;-57
2021/03/28 10:54:50;;;;;;;3.95;1.27;;;;;;;;;;5121014;27;20111;-51
2021/03/28 10:57:15;;;;;;;8.68;2.08;;;;;;;;;;5114803;28;20462;-57
2021/03/28 10:59:46;;;;;;;7.60;1.80;;;;;;;;;;5114497;28;20046;-57
2021/03/28 11:02:17;;;;;;;5.95;1.70;;;;;;;;;;5126149;27;20035;-56
2021/03/28 11:05:02;;;;;;;4.95;1.90;;;;;;;;;;5130512;27;20022;-52
2021/03/28 11:07:27;;;;;;;7.40;1.75;;;;;;;;;;5133962;27;20019;-56
2021/03/28 11:10:01;;;;;;;5.10;1.38;;;;;;;;;;5134509;27;20015;-54
2021/03/28 11:12:45;;;;;;;8.73;1.50;;;;;;;;;;5120799;27;20020;-56
2021/03/28 11:15:15;;;;;;;6.22;1.55;;;;;;;;;;5124369;27;20031;-55
2021/03/28 11:17:53;;;;;;;8.25;1.23;;;;;;;;;;5118410;27;20071;-56
2021/03/28 11:20:22;;;;;;;4.28;1.02;;;;;;;;;;5115782;27;20176;-53
2021/03/28 11:22:54;;;;;;;5.00;1.55;;;;;;;;;;5114275;28;20138;-54
2021/03/28 11:25:25;;;;;;;6.13;1.80;;;;;;;;;;5123097;27;20015;-52
2021/03/28 11:27:53;;;;;;;6.22;1.55;;;;;;;;;;5115082;27;20016;-56
2021/03/28 11:30:30;;;;;;;5.03;1.30;;;;;;;;;;5113888;28;20026;-56
2021/03/28 11:32:58;;;;;;;3.42;0.88;;;;;;;;;;5114249;28;20077;-57
2021/03/28 11:35:23;;;;;;;3.85;0.60;;;;;;;;;;5125972;27;20038;-55
2021/03/28 11:38:06;;;;;;;4.85;1.88;;;;;;;;;;5132231;27;20103;-54
2021/03/28 11:40:34;;;;;;;7.85;2.22;;;;;;;;;;5121394;27;20073;-54
2021/03/28 11:43:06;;;;;;;7.03;2.45;;;;;;;;;;5132715;27;20102;-54
2021/03/28 11:45:37;;;;;;;5.68;1.88;;;;;;;;;;5131949;27;20023;-55
2021/03/28 11:48:05;;;;;;;5.97;1.70;;;;;;;;;;5132496;27;20098;-55
2021/03/28 11:50:33;;;;;;;6.32;1.25;;;;;;;;;;5125326;27;20043;-52
2021/03/28 11:53:10;;;;;;;4.78;1.42;;;;;;;;;;5123521;27;20034;-54
2021/03/28 11:55:38;;;;;;;6.50;2.10;;;;;;;;;;5130147;27;20068;-55
2021/03/28 11:58:06;;;;;;;5.32;2.03;;;;;;;;;;5129525;27;21256;-56
2021/03/28 12:00:39;;;;;;;6.95;1.50;;;;;;;;;;5126791;27;20026;-55
2021/03/28 12:03:13;;;;;;;4.47;1.13;;;;;;;;;;5113309;27;20393;-55
2021/03/28 12:05:53;;;;;;;6.40;1.48;;;;;;;;;;5113344;28;20026;-56
2021/03/28 12:08:19;;;;;;;7.38;2.20;;;;;;;;;;5118794;27;20015;-55
2021/03/28 12:10:44;;;;;;;6.38;1.42;;;;;;;;;;5126963;27;20023;-55
2021/03/28 12:13:12;;;;;;;5.13;1.65;;;;;;;;;;5127805;27;20106;-55
2021/03/28 12:15:53;;;;;;;4.20;2.10;;;;;;;;;;5121176;27;20026;-53
2021/03/28 12:18:24;;;;;;;3.92;1.48;;;;;;;;;;5122224;27;20027;-52
2021/03/28 12:20:58;;;;;;;4.03;1.27;;;;;;;;;;5111760;28;20026;-53
2021/03/28 12:23:28;;;;;;;5.80;2.00;;;;;;;;;;5115042;27;20026;-56
2021/03/28 12:26:12;;;;;;;4.18;1.95;;;;;;;;;;5126406;27;20026;-54
2021/03/28 12:28:40;;;;;;;6.00;1.75;;;;;;;;;;5124475;27;20464;-54
2021/03/28 12:31:24;;;;;;;4.47;1.52;;;;;;;;;;5127873;27;20027;-55
2021/03/28 12:33:54;;;;;;;5.20;1.90;;;;;;;;;;5133093;27;20019;-51
2021/03/28 12:36:20;;;;;;;3.42;1.88;;;;;;;;;;5124581;27;20147;-55
2021/03/28 12:38:48;;;;;;;4.95;1.80;;;;;;;;;;5124887;27;20132;-56
2021/03/28 12:41:13;;;;;;;3.80;1.27;;;;;;;;;;5129405;27;20477;-56
2021/03/28 12:43:58;;;;;;;5.53;0.93;;;;;;;;;;5126104;27;20047;-55
2021/03/28 12:46:24;;;;;;;;;;;;;;;;;;5086544;27;20034;-54
2021/03/28 12:48:51;;;;;;;3.95;1.00;;;;;;;;;;5124419;28;19908;-57
2021/03/28 12:51:21;;;;;;;3.15;1.27;;;;;;;;;;5127009;28;20047;-56
2021/03/28 12:53:46;;;;;;;2.83;0.80;;;;;;;;;;5120009;27;20038;-56
2021/03/28 12:56:26;;;;;;;3.25;1.27;;;;;;;;;;5131718;27;20448;-57
2021/03/28 12:58:54;;;;;;;2.33;0.95;;;;;;;;;;5123397;27;20026;-56
2021/03/28 13:01:28;;;;;;;2.28;0.80;;;;;;;;;;5118304;27;20035;-55
2021/03/28 13:04:03;;;;;;;2.38;0.50;;;;;;;;;;5128139;27;20030;-53
2021/03/28 13:06:35;;;;;;;4.82;0.90;;;;;;;;;;5117190;28;20020;-56
2021/03/28 13:09:10;;;;;;;1.58;0.50;;;;;;;;;;5122544;27;20019;-55
2021/03/28 13:11:37;;;;;;;4.32;0.68;;;;;;;;;;5136021;27;20031;-52
2021/03/28 13:14:04;;;;;;;4.28;1.05;;;;;;;;;;5130183;27;20035;-56
2021/03/28 13:16:30;;;;;;;2.97;0.50;;;;;;;;;;5132455;27;20114;-54
2021/03/28 13:18:57;;;;;;;3.50;0.50;;;;;;;;;;5127173;27;20118;-55
2021/03/28 13:21:24;;;;;;;3.40;0.52;;;;;;;;;;5123979;27;20019;-54
2021/03/28 13:23:49;;;;;;;4.50;0.30;;;;;;;;;;5121603;27;20030;-50
2021/03/28 13:26:16;;;;;;;2.83;0.60;;;;;;;;;;5116344;28;20016;-54
2021/03/28 13:28:53;;;;;;;1.27;0.50;;;;;;;;;;5116686;28;20110;-54
2021/03/28 13:31:33;;;;;;;1.95;0.50;;;;;;;;;;5116405;28;20473;-55
2021/03/28 13:34:00;;;;;;;2.25;0.40;;;;;;;;;;5131451;27;20076;-54
2021/03/28 13:36:28;;;;;;;4.53;0.50;;;;;;;;;;5137050;27;20076;-53
2021/03/28 13:39:05;;;;;;;1.25;0.30;;;;;;;;;;5137109;27;20047;-54
2021/03/28 13:41:33;;;;;;;2.17;0.52;;;;;;;;;;5131010;27;20023;-52
2021/03/28 13:44:03;;;;;;;4.47;0.35;;;;;;;;;;5122379;27;20038;-54
2021/03/28 13:46:28;;;;;;;2.20;0.38;;;;;;;;;;5116377;28;20026;-55
2021/03/28 13:49:02;;;;;;;0.73;0.43;;;;;;;;;;5115013;28;20106;-53
2021/03/28 13:51:28;;;;;;;2.75;0.30;;;;;;;;;;5118747;27;20059;-56
2021/03/28 13:53:53;;;;;;;3.22;0.65;;;;;;;;;;5116026;28;20111;-55
2021/03/28 13:56:24;;;;;;;3.33;0.77;;;;;;;;;;5120120;27;20023;-53
2021/03/28 13:59:04;;;;;;;3.17;0.50;;;;;;;;;;5136701;27;20034;-54
2021/03/28 14:01:33;;;;;;;2.42;0.47;;;;;;;;;;5135701;27;20473;-54
2021/03/28 14:04:16;;;;;;;2.40;0.40;;;;;;;;;;5136051;27;20034;-54
2021/03/28 14:06:42;;;;;;;3.55;0.73;;;;;;;;;;5136502;27;20015;-54
2021/03/28 14:09:09;;;;;;;2.15;0.30;;;;;;;;;;5135115;27;20023;-56
2021/03/28 14:11:46;;;;;;;0.43;0.10;;;;;;;;;;5120717;27;20038;-55
2021/03/28 14:14:30;;;;;;;1.27;0.30;;;;;;;;;;5134915;27;20011;-55
2021/03/28 14:16:57;;;;;;;2.45;0.47;;;;;;;;;;5136290;27;20075;-52
2021/03/28 14:19:32;;;;;;;2.05;0.40;;;;;;;;;;5136137;27;20015;-56
2021/03/28 14:22:11;;;;;;;3.47;0.35;;;;;;;;;;5130031;27;20012;-56
2021/03/28 14:24:36;;;;;;;2.53;0.40;;;;;;;;;;5131969;27;20039;-55
2021/03/28 14:27:07;;;;;;;3.45;0.65;;;;;;;;;;5135741;27;20022;-55
2021/03/28 14:29:40;;;;;;;2.00;0.63;;;;;;;;;;5129949;27;20022;-54
2021/03/28 14:32:11;;;;;;;3.55;0.52;;;;;;;;;;5130819;27;20098;-54
2021/03/28 14:34:55;;;;;;;2.47;1.00;;;;;;;;;;5130808;27;20015;-53
2021/03/28 14:37:50;;;;;;;2.13;0.40;;;;;;;;;;5124498;27;20050;-53
2021/03/28 14:40:31;;;;;;;2.53;0.73;;;;;;;;;;5114235;28;20371;-55
2021/03/28 14:43:03;;;;;;;3.80;0.80;;;;;;;;;;5115491;27;20024;-55
2021/03/28 14:45:47;;;;;;;2.45;0.47;;;;;;;;;;5125118;27;20023;-55
2021/03/28 14:48:34;;;;;;;2.88;0.35;;;;;;;;;;5130832;27;20027;-55
2021/03/28 14:51:02;;;;;;;2.40;0.60;;;;;;;;;;5125341;27;20039;-55
2021/03/28 14:53:33;;;;;;;2.22;0.55;;;;;;;;;;5128393;27;20386;-53
2021/03/28 14:56:06;;;;;;;1.40;0.40;;;;;;;;;;5134989;27;20015;-56
2021/03/28 14:58:31;;;;;;;3.05;0.70;;;;;;;;;;5135385;27;20038;-56
2021/03/28 15:00:58;;;;;;;2.00;0.50;;;;;;;;;;5134456;27;20019;-56
2021/03/28 15:03:44;;;;;;;0.60;0.22;;;;;;;;;;5127928;27;20011;-55
2021/03/28 15:06:13;;;;;;;2.13;0.50;;;;;;;;;;5135133;27;20423;-55
2021/03/28 15:08:45;;;;;;;2.50;0.70;;;;;;;;;;5134982;27;20090;-53
2021/03/28 15:11:13;;;;;;;2.30;0.52;;;;;;;;;;5133870;27;20036;-55
2021/03/28 15:13:41;;;;;;;1.52;0.40;;;;;;;;;;5134125;27;20050;-52
2021/03/28 15:16:12;;;;;;;0.95;0.43;;;;;;;;;;5134349;27;20427;-53
2021/03/28 15:18:48;;;;;;;1.33;0.40;;;;;;;;;;5125176;27;20020;-55
2021/03/28 15:21:32;;;;;;;3.75;0.90;;;;;;;;;;5127395;27;20029;-56
2021/03/28 15:23:57;;;;;;;2.97;0.50;;;;;;;;;;5130326;27;20525;-54
2021/03/28 15:26:27;;;;;;;1.83;0.50;;;;;;;;;;5116632;27;20019;-53
2021/03/28 15:28:57;;;;;;;3.58;0.80;;;;;;;;;;5131717;27;20034;-59